Time;durP1;ratioP1;P1;durP2;ratioP2;P2;SDS_P1;SDS_P2;PMS_P1;PMS_P2;Temp;Humidity;BMP_temperature;BMP_pressure;BME280_temperature;BME280_humidity;BME280_pressure;Samples;Min_cycle;Max_cycle;Signal;HPM_P1;HPM_P2
2020/12/08 00:16:02;;;;;;;20.30;15.10;;;4.20;99.90;;;;;;4487270;23;20445;-83
2020/12/08 00:35:47;;;;;;;17.57;12.60;;;4.20;99.90;;;;;;5300337;23;20553;-84
2020/12/08 00:41:05;;;;;;;17.20;13.00;;;4.30;99.90;;;;;;5760815;23;20947;31
2020/12/08 00:58:24;;;;;;;16.10;13.30;;;4.40;99.90;;;;;;5552654;23;20459;31
2020/12/08 01:03:53;;;;;;;14.50;12.20;;;4.40;99.90;;;;;;5276841;23;20233;-84
2020/12/08 01:43:54;;;;;;;14.10;11.23;;;4.00;99.90;;;;;;4978381;28;20436;-86
2020/12/08 02:09:20;;;;;;;15.67;11.60;;;3.40;99.90;;;;;;513884;27;20708;-85
2020/12/08 02:34:49;;;;;;;13.67;11.23;;;3.50;99.90;;;;;;4962350;28;20420;-86
2020/12/08 03:33:05;;;;;;;13.50;11.53;;;3.90;99.90;;;;;;5805871;23;21053;-84
2020/12/08 03:40:50;;;;;;;12.87;10.80;;;3.80;99.90;;;;;;5028452;23;20484;-86
2020/12/08 04:13:16;;;;;;;16.67;11.50;;;3.80;99.90;;;;;;913681;23;20750;-84
2020/12/08 04:56:16;;;;;;;19.03;12.17;;;3.70;99.90;;;;;;5388716;23;20475;-85
2020/12/08 05:24:39;;;;;;;20.98;18.80;;;3.60;99.90;;;;;;4998107;28;20451;-86
2020/12/08 05:30:33;;;;;;;20.17;14.90;;;3.80;99.90;;;;;;5236382;23;20534;-86
2020/12/08 05:33:36;;;;;;;22.40;14.23;;;3.90;99.90;;;;;;4866518;29;20462;-86
2020/12/08 06:20:49;;;;;;;20.80;15.27;;;3.50;99.90;;;;;;5571971;23;20885;-95
2020/12/08 06:23:16;;;;;;;20.10;14.47;;;3.40;99.90;;;;;;4940282;29;20464;-94
2020/12/08 06:25:42;;;;;;;22.80;15.63;;;3.50;99.90;;;;;;4939310;29;20487;-93
2020/12/08 06:28:09;;;;;;;18.67;14.43;;;3.50;99.90;;;;;;4939434;29;20928;-93
2020/12/08 06:30:38;;;;;;;27.80;14.83;;;3.50;99.90;;;;;;4939725;29;20897;-94
2020/12/08 06:33:05;;;;;;;19.00;14.47;;;3.60;99.90;;;;;;4939797;29;20500;-93
2020/12/08 06:35:33;;;;;;;24.07;14.93;;;3.50;99.90;;;;;;4939692;29;20776;-94
2020/12/08 06:38:01;;;;;;;24.50;15.17;;;3.40;99.90;;;;;;4940242;29;20542;-93
2020/12/08 06:40:28;;;;;;;18.73;13.90;;;3.40;99.90;;;;;;4939210;29;20468;-94
2020/12/08 06:42:54;;;;;;;23.27;14.27;;;3.30;99.90;;;;;;4941993;29;20553;-93
2020/12/08 06:45:22;;;;;;;19.97;14.10;;;3.30;99.90;;;;;;4942942;29;20822;-95
2020/12/08 06:47:50;;;;;;;25.57;16.03;;;3.50;99.90;;;;;;4942173;29;20497;-93
2020/12/08 06:50:27;;;;;;;22.17;15.00;;;3.70;99.90;;;;;;4939326;29;20503;-93
2020/12/08 06:52:56;;;;;;;24.53;14.17;;;3.60;99.90;;;;;;4939196;29;20461;-93
2020/12/08 06:55:23;;;;;;;27.17;15.53;;;3.60;99.90;;;;;;4938602;29;20536;-94
2020/12/08 06:57:50;;;;;;;21.03;14.00;;;3.60;99.90;;;;;;4938969;29;20488;-95
2020/12/08 07:00:17;;;;;;;22.97;16.27;;;3.50;99.90;;;;;;4939136;29;20564;-93
2020/12/08 07:02:49;;;;;;;19.67;15.10;;;3.50;99.90;;;;;;4939649;29;20537;-91
2020/12/08 07:05:19;;;;;;;22.27;15.33;;;3.50;99.90;;;;;;4938721;29;20472;-95
2020/12/08 07:07:47;;;;;;;28.73;15.27;;;3.60;99.90;;;;;;4938883;29;20991;-93
2020/12/08 07:10:14;;;;;;;22.17;15.40;;;3.50;99.90;;;;;;4937813;29;20985;-93
2020/12/08 07:12:43;;;;;;;24.47;15.23;;;3.50;99.90;;;;;;4937847;29;20923;-93
2020/12/08 07:15:20;;;;;;;23.13;14.83;;;3.50;99.90;;;;;;4938131;29;20444;-93
2020/12/08 07:17:57;;;;;;;19.93;15.00;;;3.40;99.90;;;;;;4938144;29;20452;-92
2020/12/08 07:20:24;;;;;;;21.87;14.90;;;3.50;99.90;;;;;;4937787;29;21009;-93
2020/12/08 07:22:51;;;;;;;24.02;16.80;;;3.50;99.90;;;;;;4937595;29;20450;-94
2020/12/08 07:25:18;;;;;;;23.53;15.07;;;3.50;99.90;;;;;;4937742;29;20201;-93
2020/12/08 07:27:47;;;;;;;24.97;15.53;;;3.50;99.90;;;;;;4938065;29;20496;-93
2020/12/08 07:30:17;;;;;;;20.80;14.80;;;3.50;99.90;;;;;;4937844;29;20569;-94
2020/12/08 07:32:43;;;;;;;20.90;15.03;;;3.50;99.90;;;;;;4937468;29;21000;-94
2020/12/08 07:35:20;;;;;;;22.10;15.70;;;3.50;99.90;;;;;;4930372;29;20456;-93
2020/12/08 07:37:47;;;;;;;18.17;14.43;;;3.50;99.90;;;;;;4937234;29;20454;-94
2020/12/08 07:40:14;;;;;;;19.33;13.87;;;3.50;99.90;;;;;;4937397;29;20560;-96
2020/12/08 07:42:48;;;;;;;19.07;15.07;;;3.40;99.90;;;;;;4938506;29;20876;-95
2020/12/08 07:45:15;;;;;;;23.27;14.57;;;3.40;99.90;;;;;;4938085;29;20461;-94
2020/12/08 07:47:41;;;;;;;20.90;14.90;;;3.40;99.90;;;;;;4938731;29;20520;-93
2020/12/08 07:50:08;;;;;;;19.60;15.07;;;3.50;99.90;;;;;;4937611;29;20561;-94
2020/12/08 07:52:35;;;;;;;24.57;15.47;;;3.40;99.90;;;;;;4941366;29;20444;-95
2020/12/08 07:55:02;;;;;;;23.47;15.17;;;3.40;99.90;;;;;;4939547;29;20529;-93
2020/12/08 07:57:28;;;;;;;21.87;16.27;;;3.50;99.90;;;;;;4939872;29;20449;-93
2020/12/08 07:59:56;;;;;;;26.03;14.93;;;3.80;99.90;;;;;;4938411;29;20968;-94
2020/12/08 08:02:22;;;;;;;22.43;16.43;;;3.50;99.90;;;;;;4941849;29;20449;-94
2020/12/08 08:04:49;;;;;;;24.27;16.20;;;3.50;99.90;;;;;;4940989;29;20515;-93
2020/12/08 08:07:15;;;;;;;24.47;16.13;;;3.50;99.90;;;;;;4943484;29;20532;-94
2020/12/08 08:09:42;;;;;;;23.50;16.17;;;3.50;99.90;;;;;;4944047;29;20449;-94
2020/12/08 08:12:08;;;;;;;23.17;15.93;;;3.50;99.90;;;;;;4944558;29;20456;-95
2020/12/08 08:14:35;;;;;;;20.77;16.30;;;3.30;99.90;;;;;;4944328;29;20654;-94
2020/12/08 08:17:03;;;;;;;22.03;15.93;;;3.10;99.90;;;;;;4944060;29;20449;-95
2020/12/08 08:19:30;;;;;;;24.73;16.50;;;3.10;99.90;;;;;;4941987;29;20944;-95
2020/12/08 08:21:57;;;;;;;23.43;16.43;;;3.00;99.90;;;;;;4940214;29;20489;-94
2020/12/08 08:24:25;;;;;;;21.97;15.73;;;3.10;99.90;;;;;;4941857;29;20457;-95
2020/12/08 08:26:51;;;;;;;23.83;16.60;;;3.10;99.90;;;;;;4940213;29;20464;-95
2020/12/08 08:29:18;;;;;;;25.83;16.50;;;2.90;99.90;;;;;;4941357;29;20456;-94
2020/12/08 08:31:45;;;;;;;24.40;16.57;;;2.90;99.90;;;;;;4939478;29;20473;-95
2020/12/08 08:34:12;;;;;;;22.77;16.30;;;2.80;99.90;;;;;;4939175;29;20466;-91
2020/12/08 08:36:49;;;;;;;23.83;16.33;;;2.80;99.90;;;;;;4942378;29;20500;-94
2020/12/08 08:48:06;;;;;;;21.60;14.77;;;2.60;99.90;;;;;;4985790;23;20503;-95
2020/12/08 08:51:09;;;;;;;28.43;15.90;;;2.60;99.90;;;;;;4955691;29;20481;-94
2020/12/08 08:53:54;;;;;;;22.77;16.43;;;2.50;99.90;;;;;;4952855;29;20459;-94
2020/12/08 08:56:21;;;;;;;24.73;16.00;;;2.50;99.90;;;;;;4943746;29;20480;-93
2020/12/08 08:58:48;;;;;;;27.65;21.42;;;2.50;99.90;;;;;;4942786;29;20438;-96
2020/12/08 09:01:15;;;;;;;31.73;19.00;;;2.60;99.90;;;;;;4941915;29;20231;-93
2020/12/08 09:03:41;;;;;;;23.67;16.37;;;2.60;99.90;;;;;;4946101;29;20441;-96
2020/12/08 09:06:08;;;;;;;29.70;17.50;;;2.60;99.90;;;;;;4943952;29;20456;-94
2020/12/08 09:08:34;;;;;;;22.70;17.03;;;2.90;99.90;;;;;;4943988;29;20488;-95
2020/12/08 09:11:02;;;;;;;22.53;15.73;;;3.10;99.90;;;;;;4942822;29;20542;-93
2020/12/08 09:13:28;;;;;;;25.50;17.60;;;3.10;99.90;;;;;;4943622;29;20453;-95
2020/12/08 09:15:55;;;;;;;33.87;17.83;;;3.00;99.90;;;;;;4946941;29;20485;-94
2020/12/08 09:18:22;;;;;;;28.03;18.10;;;2.90;99.90;;;;;;4946749;29;20545;-94
2020/12/08 09:20:57;;;;;;;33.23;17.73;;;2.90;99.90;;;;;;4947390;29;20556;-95
2020/12/08 09:23:24;;;;;;;28.38;21.95;;;2.80;99.90;;;;;;4946021;29;20435;-95
2020/12/08 09:25:50;;;;;;;32.87;17.80;;;2.80;99.90;;;;;;4943074;29;20261;-94
2020/12/08 09:28:18;;;;;;;24.30;17.97;;;2.90;99.90;;;;;;4941769;29;20543;-95
2020/12/08 09:30:46;;;;;;;23.10;16.53;;;2.90;99.90;;;;;;4942243;29;20972;-95
2020/12/08 09:35:55;;;;;;;26.93;16.53;;;3.00;99.90;;;;;;4929101;29;20480;-95
2020/12/08 09:39:11;;;;;;;37.20;17.27;;;3.00;99.90;;;;;;4958293;29;20509;-96
2020/12/08 09:41:38;;;;;;;25.73;17.33;;;3.00;99.90;;;;;;4958458;29;20553;-94
2020/12/08 09:46:49;;;;;;;42.13;17.60;;;3.20;99.90;;;;;;4951307;29;20449;-93
2020/12/08 09:49:16;;;;;;;33.27;20.43;;;3.20;99.90;;;;;;4946571;29;20984;-93
2020/12/08 09:54:51;;;;;;;31.37;16.63;;;3.50;99.90;;;;;;4944282;28;20479;-92
2020/12/08 09:57:18;;;;;;;24.33;17.93;;;3.50;99.90;;;;;;4942037;29;20453;-93
2020/12/08 09:59:46;;;;;;;26.33;17.23;;;3.50;99.90;;;;;;4939798;29;20906;-92
2020/12/08 10:02:12;;;;;;;26.17;17.63;;;3.60;99.90;;;;;;4939984;29;20549;-93
2020/12/08 10:04:39;;;;;;;24.87;16.30;;;3.50;99.90;;;;;;4941370;29;20535;-95
2020/12/08 10:07:06;;;;;;;25.97;16.97;;;3.60;99.90;;;;;;4943733;29;20833;-95
2020/12/08 10:09:32;;;;;;;26.53;16.30;;;3.60;99.90;;;;;;4941842;29;20462;-93
2020/12/08 10:11:59;;;;;;;24.13;16.47;;;3.60;99.90;;;;;;4945079;29;20497;-95
2020/12/08 10:14:26;;;;;;;29.90;17.17;;;3.70;99.90;;;;;;4948114;29;20477;-94
2020/12/08 10:16:53;;;;;;;30.57;16.43;;;3.80;99.90;;;;;;4944128;29;20457;-94
2020/12/08 10:19:21;;;;;;;28.07;17.17;;;3.80;99.90;;;;;;4945677;29;20500;-94
2020/12/08 10:21:48;;;;;;;30.30;17.13;;;3.90;99.90;;;;;;4941343;29;20828;-94
2020/12/08 10:24:14;;;;;;;21.73;15.33;;;4.10;99.90;;;;;;4941180;29;20502;-92
2020/12/08 10:26:41;;;;;;;31.53;16.43;;;4.10;99.90;;;;;;4939110;29;20468;-95
2020/12/08 10:29:07;;;;;;;21.53;14.40;;;4.20;99.90;;;;;;4940288;29;20556;-94
2020/12/08 10:31:59;;;;;;;26.77;15.97;;;4.30;99.90;;;;;;4942529;29;20896;-95
2020/12/08 10:34:44;;;;;;;26.43;14.93;;;4.30;99.90;;;;;;4953512;29;20214;-96
2020/12/08 10:37:11;;;;;;;21.47;14.33;;;4.40;99.90;;;;;;4952173;23;20246;-95
2020/12/08 10:39:40;;;;;;;27.97;15.93;;;4.40;99.90;;;;;;4944569;29;20929;-93
2020/12/08 10:42:13;;;;;;;24.23;15.60;;;4.60;99.90;;;;;;4958060;29;20231;-95
2020/12/08 10:45:12;;;;;;;23.33;15.77;;;4.60;99.90;;;;;;4951276;29;20441;-94
2020/12/08 10:47:39;;;;;;;24.80;16.10;;;4.70;99.90;;;;;;4959229;23;20242;-94
2020/12/08 11:01:02;;;;;;;24.77;15.00;;;5.00;99.90;;;;;;4854374;29;20467;-94
2020/12/08 11:09:52;;;;;;;32.57;16.87;;;5.20;99.90;;;;;;4946068;29;20576;-95
2020/12/08 11:25:48;;;;;;;23.17;17.07;;;5.50;99.90;;;;;;4958106;23;20238;-94
2020/12/08 11:28:39;;;;;;;26.67;18.80;;;5.50;99.90;;;;;;4959827;23;20238;-95
2020/12/08 11:36:46;;;;;;;22.07;16.47;;;5.60;99.90;;;;;;4968780;29;20244;-96
2020/12/08 11:39:16;;;;;;;22.27;16.20;;;5.70;99.90;;;;;;4936736;29;20217;-96
2020/12/08 11:44:27;;;;;;;18.40;13.60;;;5.60;99.90;;;;;;4971541;29;20225;-96
2020/12/08 11:46:55;;;;;;;18.87;14.47;;;5.60;99.90;;;;;;4968575;29;20205;-96
2020/12/08 11:49:22;;;;;;;20.17;14.20;;;5.60;99.90;;;;;;4967351;29;20249;-96
2020/12/08 11:51:49;;;;;;;17.73;13.33;;;5.70;99.90;;;;;;4948945;29;20690;-96
2020/12/08 11:54:24;;;;;;;17.33;13.47;;;5.80;99.90;;;;;;4967996;29;20210;-96
2020/12/08 11:56:53;;;;;;;19.77;13.27;;;5.90;99.90;;;;;;4971709;29;20193;-95
2020/12/08 11:59:20;;;;;;;15.70;13.23;;;5.90;99.90;;;;;;4972590;29;20214;-95
2020/12/08 12:01:53;;;;;;;22.00;13.73;;;6.00;99.90;;;;;;4968299;29;20236;-95
2020/12/08 12:04:20;;;;;;;19.23;13.53;;;6.00;99.90;;;;;;4997690;23;20221;-96
2020/12/08 12:12:40;;;;;;;14.67;12.40;;;6.30;99.90;;;;;;4968041;29;20233;-96
2020/12/08 12:18:08;;;;;;;17.10;12.80;;;6.40;99.90;;;;;;5036728;23;20249;-96
2020/12/08 12:41:31;;;;;;;12.27;10.97;;;7.10;99.90;;;;;;4911682;23;20242;-94
2020/12/08 14:52:09;;;;;;;17.27;12.77;;;6.50;99.90;;;;;;4888349;29;20246;-94
2020/12/08 14:54:35;;;;;;;18.33;13.80;;;6.40;99.90;;;;;;4882923;29;20338;-95
2020/12/08 14:57:02;;;;;;;14.00;11.57;;;6.40;99.90;;;;;;4882858;29;20229;-93
2020/12/08 14:59:29;;;;;;;17.10;13.10;;;6.40;99.90;;;;;;4882402;29;20300;-95
2020/12/08 15:01:56;;;;;;;15.40;12.67;;;6.40;99.90;;;;;;4882168;29;20233;-95
2020/12/08 15:04:22;;;;;;;18.80;12.77;;;6.40;99.90;;;;;;4882439;29;20217;-96
2020/12/08 15:06:50;;;;;;;20.07;12.50;;;6.40;99.90;;;;;;4881810;29;20272;-92
2020/12/08 15:09:18;;;;;;;15.03;11.83;;;6.40;99.90;;;;;;4882021;29;20237;-95
2020/12/08 15:11:45;;;;;;;20.83;13.50;;;6.20;99.90;;;;;;4886209;29;20255;-95
2020/12/08 15:14:12;;;;;;;16.80;13.43;;;6.10;99.90;;;;;;4882021;29;20216;-96
2020/12/08 15:16:39;;;;;;;15.17;11.63;;;6.20;99.90;;;;;;4882684;29;20280;-95
2020/12/08 15:19:05;;;;;;;21.07;14.20;;;6.30;99.90;;;;;;4882416;29;20308;-95
2020/12/08 15:21:31;;;;;;;17.00;13.73;;;6.30;99.90;;;;;;4883403;29;20320;-95
2020/12/08 15:23:58;;;;;;;17.00;13.90;;;6.30;99.90;;;;;;4882101;29;20649;-94
2020/12/08 15:26:25;;;;;;;17.50;13.23;;;6.30;99.90;;;;;;4882112;29;20218;-93
2020/12/08 15:28:52;;;;;;;22.50;14.20;;;6.20;99.90;;;;;;4881574;29;20240;-95
2020/12/08 15:31:18;;;;;;;18.93;14.07;;;6.10;99.90;;;;;;4881839;29;20311;-94
2020/12/08 15:33:45;;;;;;;19.00;14.70;;;6.00;99.90;;;;;;4882040;29;20212;-94
2020/12/08 15:36:13;;;;;;;16.43;13.97;;;5.90;99.90;;;;;;4881755;29;20215;-96
2020/12/08 15:38:39;;;;;;;17.60;13.03;;;5.60;99.90;;;;;;4881139;29;20197;-94
2020/12/08 15:41:06;;;;;;;17.07;13.20;;;5.50;99.90;;;;;;4882772;29;20701;-94
2020/12/08 15:43:33;;;;;;;17.93;13.30;;;5.40;99.90;;;;;;4883011;29;20296;-94
2020/12/08 15:46:02;;;;;;;23.83;14.67;;;5.40;99.90;;;;;;4888473;29;20204;-96
2020/12/08 15:48:32;;;;;;;20.00;14.13;;;5.40;99.90;;;;;;4889704;29;20268;-96
2020/12/08 15:50:59;;;;;;;18.10;14.77;;;5.30;99.90;;;;;;4891542;29;20269;-96
2020/12/08 15:53:27;;;;;;;17.90;14.03;;;5.10;99.90;;;;;;4897696;29;20217;-96
2020/12/08 15:58:23;;;;;;;23.73;15.50;;;4.90;99.90;;;;;;4903015;29;20232;-93
2020/12/08 16:03:50;;;;;;;22.67;16.13;;;4.80;99.90;;;;;;4885513;29;20204;-94
2020/12/08 16:06:20;;;;;;;24.97;17.03;;;4.70;99.90;;;;;;4869763;29;20212;-92
2020/12/08 16:08:47;;;;;;;29.13;19.23;;;4.60;99.90;;;;;;4883710;29;21055;-87
2020/12/08 16:11:16;;;;;;;23.10;16.70;;;4.50;99.90;;;;;;4881971;29;20559;-87
2020/12/08 16:13:42;;;;;;;20.20;15.90;;;4.40;99.90;;;;;;4884067;29;20454;-87
2020/12/08 16:16:11;;;;;;;25.93;14.67;;;4.30;99.90;;;;;;4881902;29;20344;-92
2020/12/08 16:18:37;;;;;;;25.80;16.07;;;4.20;99.90;;;;;;4880866;29;20352;-92
2020/12/08 16:21:04;;;;;;;21.57;14.57;;;4.20;99.90;;;;;;4881766;29;20267;-89
2020/12/08 16:23:30;;;;;;;24.70;15.17;;;4.10;99.90;;;;;;4881510;29;20212;-91
2020/12/08 16:25:57;;;;;;;19.70;14.27;;;4.00;99.90;;;;;;4881293;29;20247;-91
2020/12/08 16:28:26;;;;;;;22.47;15.43;;;3.80;99.90;;;;;;4882629;29;20228;-92
2020/12/08 16:30:53;;;;;;;29.20;14.93;;;3.80;99.90;;;;;;4882570;29;20476;-90
2020/12/08 16:33:22;;;;;;;22.83;15.83;;;3.80;99.90;;;;;;4882120;29;20464;-89
2020/12/08 16:35:48;;;;;;;20.27;14.80;;;3.70;99.90;;;;;;4865745;29;20452;-89
2020/12/08 16:38:15;;;;;;;28.17;21.67;;;3.70;99.90;;;;;;4880534;29;20474;-90
2020/12/08 16:40:41;;;;;;;24.43;16.97;;;3.80;99.90;;;;;;4881219;29;20263;-89
2020/12/08 16:43:08;;;;;;;25.93;17.93;;;3.80;99.90;;;;;;4868206;29;20474;-87
2020/12/08 16:45:35;;;;;;;25.73;16.73;;;3.70;99.90;;;;;;4884213;29;20478;-91
2020/12/08 16:48:02;;;;;;;23.07;16.33;;;3.70;99.90;;;;;;4880869;29;20531;-90
2020/12/08 16:50:30;;;;;;;24.30;16.57;;;3.60;99.90;;;;;;4881091;29;20562;-90
2020/12/08 16:52:56;;;;;;;25.33;16.57;;;3.60;99.90;;;;;;4881907;29;20490;-88
2020/12/08 16:55:22;;;;;;;27.20;16.67;;;3.50;99.90;;;;;;4881997;29;20503;-90
2020/12/08 16:57:49;;;;;;;23.03;16.43;;;3.40;99.90;;;;;;4882065;29;20578;-90
2020/12/08 17:00:17;;;;;;;30.30;18.70;;;3.40;99.90;;;;;;4888462;29;20463;-87
2020/12/08 17:02:44;;;;;;;25.37;17.60;;;3.40;99.90;;;;;;4888280;29;20456;-91
2020/12/08 17:05:11;;;;;;;28.37;18.47;;;3.30;99.90;;;;;;4881218;29;20579;-89
2020/12/08 17:07:41;;;;;;;27.23;17.23;;;3.20;99.90;;;;;;4880496;29;20932;-90
2020/12/08 17:10:07;;;;;;;30.13;17.53;;;3.20;99.90;;;;;;4879902;29;20479;-89
2020/12/08 17:12:34;;;;;;;33.93;19.37;;;3.10;99.90;;;;;;4880118;29;20539;-89
2020/12/08 17:15:00;;;;;;;29.47;18.30;;;3.10;99.90;;;;;;4880211;29;20446;-89
2020/12/08 17:17:27;;;;;;;28.50;17.23;;;3.10;99.90;;;;;;4880637;29;20535;-90
2020/12/08 17:19:53;;;;;;;30.07;19.13;;;3.00;99.90;;;;;;4879697;29;20503;-89
2020/12/08 17:22:20;;;;;;;26.43;18.93;;;2.90;99.90;;;;;;4880191;29;20810;-89
2020/12/08 17:24:47;;;;;;;30.50;18.37;;;2.90;99.90;;;;;;4879607;29;20519;-91
2020/12/08 17:27:14;;;;;;;29.47;18.57;;;2.90;99.90;;;;;;4882108;29;20462;-90
2020/12/08 17:29:40;;;;;;;34.27;18.30;;;2.80;99.90;;;;;;4882273;29;20487;-89
2020/12/08 17:32:10;;;;;;;26.87;19.20;;;2.70;99.90;;;;;;4882259;29;20495;-88
2020/12/08 17:34:37;;;;;;;26.03;19.10;;;2.70;99.90;;;;;;4882551;29;20475;-91
2020/12/08 17:37:03;;;;;;;29.50;18.83;;;2.70;99.90;;;;;;4883319;29;20484;-89
2020/12/08 17:39:30;;;;;;;34.07;20.13;;;2.60;99.90;;;;;;4883059;29;20486;-90
2020/12/08 17:41:59;;;;;;;35.47;19.97;;;2.60;99.90;;;;;;4883160;29;20476;-90
2020/12/08 17:44:26;;;;;;;41.03;21.20;;;2.50;99.90;;;;;;4883774;29;20916;-90
2020/12/08 17:46:52;;;;;;;40.60;21.63;;;2.50;99.90;;;;;;4882346;29;20486;-89
2020/12/08 17:49:19;;;;;;;39.80;21.63;;;2.50;99.90;;;;;;4882400;29;20582;-90
2020/12/08 17:51:45;;;;;;;33.13;21.33;;;2.40;99.90;;;;;;4881626;29;20472;-90
2020/12/08 17:54:12;;;;;;;35.40;21.30;;;2.30;99.90;;;;;;4882299;29;20463;-89
2020/12/08 17:56:38;;;;;;;41.17;24.03;;;2.40;99.90;;;;;;4842359;29;691720;-91
2020/12/08 17:59:05;;;;;;;44.53;23.23;;;2.40;99.90;;;;;;4883534;29;20289;-89
2020/12/08 18:01:38;;;;;;;43.70;23.60;;;2.40;99.90;;;;;;4884191;29;20486;-87
2020/12/08 18:04:05;;;;;;;43.97;23.87;;;2.30;99.90;;;;;;4883174;29;20448;-92
2020/12/08 18:06:31;;;;;;;43.33;22.63;;;2.40;99.90;;;;;;4882993;29;20464;-90
2020/12/08 18:08:58;;;;;;;41.33;24.20;;;2.30;99.90;;;;;;4883170;29;20957;-91
2020/12/08 18:11:24;;;;;;;44.23;23.90;;;2.30;99.90;;;;;;4883000;29;20528;-91
2020/12/08 18:13:51;;;;;;;46.40;26.20;;;2.20;99.90;;;;;;4883326;29;20544;-91
2020/12/08 18:16:19;;;;;;;58.53;25.70;;;2.20;99.90;;;;;;4883696;29;20447;-90
2020/12/08 18:18:45;;;;;;;48.13;24.90;;;2.20;99.90;;;;;;4884898;29;20575;-90
2020/12/08 18:21:12;;;;;;;47.13;24.07;;;2.20;99.90;;;;;;4883903;29;20532;-90
2020/12/08 18:23:38;;;;;;;48.07;24.57;;;2.30;99.90;;;;;;4883730;29;20444;-91
2020/12/08 18:26:05;;;;;;;47.90;25.43;;;2.30;99.90;;;;;;4882673;29;20495;-93
2020/12/08 18:28:31;;;;;;;47.40;24.83;;;2.40;99.90;;;;;;4882486;29;20926;-91
2020/12/08 18:30:58;;;;;;;52.87;27.50;;;2.50;99.90;;;;;;4882928;29;20995;-90
2020/12/08 18:33:25;;;;;;;43.40;26.27;;;2.60;99.90;;;;;;4882613;29;20424;-90
2020/12/08 18:35:52;;;;;;;46.57;26.03;;;2.70;99.90;;;;;;4884753;29;20498;-91
2020/12/08 18:38:18;;;;;;;51.73;28.53;;;2.80;99.90;;;;;;4881728;29;20893;-92
2020/12/08 18:40:45;;;;;;;51.67;30.23;;;2.90;99.90;;;;;;4882289;29;21066;-92
2020/12/08 18:43:11;;;;;;;59.90;30.67;;;3.10;99.90;;;;;;4882798;29;20971;-90
2020/12/08 18:45:40;;;;;;;64.57;33.07;;;3.20;99.90;;;;;;4882816;29;20523;-91
2020/12/08 18:48:07;;;;;;;55.93;29.97;;;3.30;99.90;;;;;;4892416;29;20464;-90
2020/12/08 18:50:35;;;;;;;52.57;30.20;;;3.40;99.90;;;;;;4884067;29;20500;-90
2020/12/08 18:53:03;;;;;;;50.80;29.10;;;3.50;99.90;;;;;;4867975;29;20456;-90
2020/12/08 18:55:30;;;;;;;49.73;26.47;;;3.40;99.90;;;;;;4883367;29;20480;-90
2020/12/08 18:57:57;;;;;;;47.97;28.30;;;3.50;99.90;;;;;;4884180;29;20491;-90
2020/12/08 19:00:26;;;;;;;55.50;29.93;;;3.50;99.90;;;;;;4885463;29;20546;-90
2020/12/08 19:02:54;;;;;;;46.77;29.73;;;3.70;99.90;;;;;;4890277;29;20439;-92
2020/12/08 19:05:22;;;;;;;47.00;28.63;;;3.90;99.90;;;;;;4895486;29;20455;-89
2020/12/08 19:07:51;;;;;;;43.20;28.30;;;4.10;99.90;;;;;;4885396;29;20459;-90
2020/12/08 19:10:19;;;;;;;44.37;29.47;;;4.20;99.90;;;;;;4885007;29;20531;-90
2020/12/08 19:12:46;;;;;;;42.73;28.53;;;4.10;99.90;;;;;;4889288;29;20463;-89
2020/12/08 19:15:15;;;;;;;48.80;29.20;;;4.10;99.90;;;;;;4892329;29;20518;-90
2020/12/08 19:17:43;;;;;;;45.60;29.13;;;4.00;99.90;;;;;;4895814;29;21017;-89
2020/12/08 19:20:12;;;;;;;43.33;28.40;;;4.10;99.90;;;;;;4893227;29;20542;-91
2020/12/08 19:22:38;;;;;;;42.50;29.27;;;4.10;99.90;;;;;;4888060;29;20902;-90
2020/12/08 19:25:06;;;;;;;40.50;27.73;;;4.10;99.90;;;;;;4900648;29;20947;-91
2020/12/08 19:27:33;;;;;;;43.00;28.20;;;4.20;99.90;;;;;;4900828;29;20481;-93
2020/12/08 19:30:00;;;;;;;44.20;30.03;;;4.10;99.90;;;;;;4900002;29;20554;-91
2020/12/08 19:32:26;;;;;;;45.10;28.63;;;4.10;99.90;;;;;;4899940;29;20550;-90
2020/12/08 19:34:53;;;;;;;45.33;28.53;;;4.20;99.90;;;;;;4900371;29;20469;-92
2020/12/08 19:37:19;;;;;;;41.37;27.33;;;4.00;99.90;;;;;;4900039;29;20465;-91
2020/12/08 19:39:46;;;;;;;44.90;29.07;;;4.10;99.90;;;;;;4899685;29;20547;-90
2020/12/08 19:42:15;;;;;;;44.03;29.10;;;4.40;99.90;;;;;;4899829;29;20451;-93
2020/12/08 19:44:44;;;;;;;46.17;28.27;;;4.50;99.90;;;;;;4900376;29;20542;-92
2020/12/08 19:47:11;;;;;;;44.87;28.13;;;4.40;99.90;;;;;;4890172;29;20483;-92
2020/12/08 19:49:37;;;;;;;43.63;27.83;;;4.50;99.90;;;;;;4881123;29;20498;-91
2020/12/08 19:52:07;;;;;;;46.50;27.97;;;4.30;99.90;;;;;;4881100;29;20487;-91
2020/12/08 19:54:33;;;;;;;37.23;25.80;;;4.20;99.90;;;;;;4880893;29;20462;-91
2020/12/08 19:57:01;;;;;;;39.80;25.50;;;4.10;99.90;;;;;;4869180;29;20490;-91
2020/12/08 19:59:28;;;;;;;39.23;26.30;;;3.90;99.90;;;;;;4890321;29;20470;-93
2020/12/08 20:01:55;;;;;;;36.47;24.97;;;3.90;99.90;;;;;;4886912;29;20480;-93
2020/12/08 20:04:21;;;;;;;35.87;23.83;;;3.80;99.90;;;;;;4883106;29;20503;-92
2020/12/08 20:06:48;;;;;;;32.57;23.87;;;3.40;99.90;;;;;;4882578;29;20546;-92
2020/12/08 20:09:15;;;;;;;39.37;26.07;;;3.50;99.90;;;;;;4881700;29;20519;-91
2020/12/08 20:11:42;;;;;;;38.17;26.23;;;3.10;99.90;;;;;;4881712;29;20472;-93
2020/12/08 20:14:09;;;;;;;39.00;25.87;;;3.20;99.90;;;;;;4880792;29;20432;-89
2020/12/08 20:16:40;;;;;;;39.17;26.63;;;3.10;99.90;;;;;;4885256;29;20455;-92
2020/12/08 20:19:07;;;;;;;39.20;26.67;;;3.10;99.90;;;;;;4899389;29;20478;-90
2020/12/08 20:21:35;;;;;;;38.73;25.93;;;3.20;99.90;;;;;;4898854;29;20917;-90
2020/12/08 20:24:02;;;;;;;49.23;28.17;;;3.10;99.90;;;;;;4899250;29;20466;-91
2020/12/08 20:26:28;;;;;;;44.40;26.20;;;2.90;99.90;;;;;;4898842;29;20583;-92
2020/12/08 20:28:55;;;;;;;39.47;26.70;;;2.90;99.90;;;;;;4898721;29;20518;-91
2020/12/08 20:31:21;;;;;;;42.90;27.63;;;2.90;99.90;;;;;;4898897;29;20498;-91
2020/12/08 20:33:51;;;;;;;48.77;27.53;;;3.00;99.90;;;;;;4898475;29;20454;-93
2020/12/08 20:36:24;;;;;;;50.53;28.77;;;3.10;99.90;;;;;;4899039;29;20899;-91
2020/12/08 20:38:50;;;;;;;45.63;28.37;;;3.00;99.90;;;;;;4899029;29;20541;-91
2020/12/08 20:41:18;;;;;;;46.07;27.30;;;3.10;99.90;;;;;;4898926;29;20489;-91
2020/12/08 20:43:44;;;;;;;46.17;27.60;;;3.00;99.90;;;;;;4898897;29;20554;-91
2020/12/08 20:46:11;;;;;;;46.27;27.70;;;2.90;99.90;;;;;;4899009;29;20451;-90
2020/12/08 20:48:37;;;;;;;58.90;30.73;;;2.90;99.90;;;;;;4898307;29;20578;-89
2020/12/08 20:51:04;;;;;;;61.23;27.90;;;2.90;99.90;;;;;;4898727;29;20560;-91
2020/12/08 20:53:31;;;;;;;57.60;26.87;;;2.90;99.90;;;;;;4898366;29;21006;-91
2020/12/08 20:56:00;;;;;;;56.73;29.40;;;2.90;99.90;;;;;;4899092;29;20530;-91
2020/12/08 20:58:27;;;;;;;55.93;27.13;;;2.90;99.90;;;;;;4899116;29;20582;-90
2020/12/08 21:00:54;;;;;;;94.77;30.13;;;2.90;99.90;;;;;;4899050;29;20832;-92
2020/12/08 21:03:20;;;;;;;64.03;28.93;;;3.00;99.90;;;;;;4902470;29;20451;-90
2020/12/08 21:05:47;;;;;;;64.37;29.20;;;3.20;99.90;;;;;;4902599;29;20466;-91
2020/12/08 21:08:14;;;;;;;58.13;28.10;;;3.30;99.90;;;;;;4902456;29;20950;-92
2020/12/08 21:10:40;;;;;;;64.63;26.07;;;3.00;99.90;;;;;;4902492;29;20561;-90
2020/12/08 21:13:07;;;;;;;61.17;26.23;;;2.90;99.90;;;;;;4902010;29;21018;-91
2020/12/08 21:15:33;;;;;;;72.17;29.20;;;2.60;99.90;;;;;;4902348;29;20455;-91
2020/12/08 21:18:00;;;;;;;71.93;29.53;;;2.70;99.90;;;;;;4886245;29;20498;-90
2020/12/08 21:20:27;;;;;;;48.33;25.60;;;2.60;99.90;;;;;;4882852;29;20490;-89
2020/12/08 21:22:55;;;;;;;63.73;26.87;;;2.80;99.90;;;;;;4866925;29;20451;-93
2020/12/08 21:25:25;;;;;;;77.43;27.23;;;2.70;99.90;;;;;;4883403;29;20496;-92
2020/12/08 21:27:52;;;;;;;54.70;25.40;;;2.60;99.90;;;;;;4883800;29;20958;-91
2020/12/08 21:30:18;;;;;;;77.63;26.90;;;2.70;99.90;;;;;;4882949;29;20495;-93
2020/12/08 21:32:45;;;;;;;73.00;25.83;;;2.70;99.90;;;;;;4883595;29;20487;-91
2020/12/08 21:35:12;;;;;;;61.03;25.67;;;2.70;99.90;;;;;;4883068;29;20475;-92
2020/12/08 21:37:39;;;;;;;57.60;25.30;;;2.80;99.90;;;;;;4883144;29;20519;-93
2020/12/08 21:40:07;;;;;;;57.90;26.87;;;2.90;99.90;;;;;;4883112;29;21095;-92
2020/12/08 21:42:35;;;;;;;73.63;25.27;;;3.00;99.90;;;;;;4883213;29;20491;-89
2020/12/08 21:45:01;;;;;;;57.20;25.33;;;2.90;99.90;;;;;;4882837;29;20464;-92
2020/12/08 21:47:28;;;;;;;75.33;24.70;;;3.10;99.90;;;;;;4882869;29;21054;-91
2020/12/08 21:50:03;;;;;;;61.90;26.30;;;2.90;99.90;;;;;;4882752;29;20586;-91
2020/12/08 21:52:29;;;;;;;49.60;26.10;;;3.00;99.90;;;;;;4883501;29;20467;-91
2020/12/08 21:54:56;;;;;;;48.77;24.83;;;2.80;99.90;;;;;;4883252;29;20455;-92
2020/12/08 21:57:24;;;;;;;52.93;27.97;;;2.70;99.90;;;;;;4883220;29;20519;-92
2020/12/08 21:59:52;;;;;;;57.30;26.90;;;2.80;99.90;;;;;;4892541;29;20466;-90
2020/12/08 22:02:19;;;;;;;60.57;28.07;;;2.60;99.90;;;;;;4899246;29;20444;-91
2020/12/08 22:04:46;;;;;;;55.20;25.73;;;2.80;99.90;;;;;;4885246;29;20507;-90